sensor_id;sensor_type;location;lat;lon;timestamp;P1;durP1;ratioP1;P2;durP2;ratioP2
51800;SDS011;37855;53.204;6.568;2022-09-09T00:06:49;13.80;;;7.85;;
51800;SDS011;37855;53.204;6.568;2022-09-09T00:09:23;13.88;;;8.00;;
51800;SDS011;37855;53.204;6.568;2022-09-09T00:12:02;14.00;;;8.05;;
51800;SDS011;37855;53.204;6.568;2022-09-09T00:14:51;14.77;;;8.68;;
51800;SDS011;37855;53.204;6.568;2022-09-09T00:17:24;10.48;;;7.72;;
51800;SDS011;37855;53.204;6.568;2022-09-09T00:22:27;14.57;;;8.88;;
51800;SDS011;37855;53.204;6.568;2022-09-09T00:24:57;12.88;;;8.20;;
51800;SDS011;37855;53.204;6.568;2022-09-09T00:27:43;10.93;;;8.10;;
51800;SDS011;37855;53.204;6.568;2022-09-09T00:30:15;15.20;;;8.48;;
51800;SDS011;37855;53.204;6.568;2022-09-09T00:32:49;21.27;;;8.90;;
51800;SDS011;37855;53.204;6.568;2022-09-09T00:35:24;12.30;;;8.30;;
51800;SDS011;37855;53.204;6.568;2022-09-09T00:37:53;15.55;;;8.55;;
51800;SDS011;37855;53.204;6.568;2022-09-09T00:40:23;11.90;;;8.57;;
51800;SDS011;37855;53.204;6.568;2022-09-09T00:42:58;12.25;;;8.75;;
51800;SDS011;37855;53.204;6.568;2022-09-09T00:48:40;14.05;;;7.88;;
51800;SDS011;37855;53.204;6.568;2022-09-09T00:51:44;15.40;;;8.02;;
51800;SDS011;37855;53.204;6.568;2022-09-09T00:59:52;14.27;;;7.63;;
51800;SDS011;37855;53.204;6.568;2022-09-09T01:02:39;11.05;;;6.78;;
51800;SDS011;37855;53.204;6.568;2022-09-09T01:05:20;12.95;;;6.65;;
51800;SDS011;37855;53.204;6.568;2022-09-09T01:07:52;10.25;;;6.78;;
51800;SDS011;37855;53.204;6.568;2022-09-09T01:11:01;10.65;;;7.00;;
51800;SDS011;37855;53.204;6.568;2022-09-09T01:13:41;10.63;;;7.03;;
51800;SDS011;37855;53.204;6.568;2022-09-09T01:16:01;12.52;;;6.50;;
51800;SDS011;37855;53.204;6.568;2022-09-09T01:18:30;10.77;;;6.90;;
51800;SDS011;37855;53.204;6.568;2022-09-09T01:21:17;14.55;;;7.95;;
51800;SDS011;37855;53.204;6.568;2022-09-09T01:23:55;12.65;;;7.40;;
51800;SDS011;37855;53.204;6.568;2022-09-09T01:26:37;12.07;;;6.72;;
51800;SDS011;37855;53.204;6.568;2022-09-09T01:29:11;9.50;;;7.10;;
51800;SDS011;37855;53.204;6.568;2022-09-09T01:31:40;9.02;;;6.68;;
51800;SDS011;37855;53.204;6.568;2022-09-09T01:34:33;11.55;;;7.38;;
51800;SDS011;37855;53.204;6.568;2022-09-09T01:39:34;11.27;;;7.25;;
51800;SDS011;37855;53.204;6.568;2022-09-09T01:42:01;13.60;;;6.85;;
51800;SDS011;37855;53.204;6.568;2022-09-09T01:44:27;10.95;;;6.93;;
51800;SDS011;37855;53.204;6.568;2022-09-09T01:46:54;12.48;;;6.80;;
51800;SDS011;37855;53.204;6.568;2022-09-09T01:49:20;12.10;;;6.80;;
51800;SDS011;37855;53.204;6.568;2022-09-09T01:51:46;15.23;;;7.20;;
51800;SDS011;37855;53.204;6.568;2022-09-09T01:54:16;11.13;;;6.90;;
51800;SDS011;37855;53.204;6.568;2022-09-09T01:59:48;10.77;;;7.07;;
51800;SDS011;37855;53.204;6.568;2022-09-09T02:02:56;12.25;;;7.32;;
51800;SDS011;37855;53.204;6.568;2022-09-09T02:05:45;11.60;;;6.65;;
51800;SDS011;37855;53.204;6.568;2022-09-09T02:11:14;14.82;;;8.05;;
51800;SDS011;37855;53.204;6.568;2022-09-09T02:13:45;13.32;;;7.78;;
51800;SDS011;37855;53.204;6.568;2022-09-09T02:21:26;14.02;;;8.40;;
51800;SDS011;37855;53.204;6.568;2022-09-09T02:23:53;13.15;;;8.05;;
51800;SDS011;37855;53.204;6.568;2022-09-09T02:26:22;14.95;;;8.65;;
51800;SDS011;37855;53.204;6.568;2022-09-09T02:28:50;15.82;;;8.57;;
51800;SDS011;37855;53.204;6.568;2022-09-09T02:31:18;15.00;;;8.55;;
51800;SDS011;37855;53.204;6.568;2022-09-09T02:33:48;14.38;;;8.60;;
51800;SDS011;37855;53.204;6.568;2022-09-09T02:36:22;13.23;;;8.00;;
51800;SDS011;37855;53.204;6.568;2022-09-09T02:38:50;16.45;;;8.60;;
51800;SDS011;37855;53.204;6.568;2022-09-09T02:41:32;16.25;;;8.25;;
51800;SDS011;37855;53.204;6.568;2022-09-09T02:43:59;16.92;;;8.65;;
51800;SDS011;37855;53.204;6.568;2022-09-09T02:46:45;13.82;;;8.45;;
51800;SDS011;37855;53.204;6.568;2022-09-09T02:52:01;14.05;;;8.10;;
51800;SDS011;37855;53.204;6.568;2022-09-09T02:54:33;13.80;;;9.38;;
51800;SDS011;37855;53.204;6.568;2022-09-09T02:57:06;13.95;;;7.82;;
51800;SDS011;37855;53.204;6.568;2022-09-09T02:59:38;14.55;;;8.00;;
51800;SDS011;37855;53.204;6.568;2022-09-09T03:02:05;12.73;;;8.07;;
51800;SDS011;37855;53.204;6.568;2022-09-09T03:04:31;12.90;;;7.82;;
51800;SDS011;37855;53.204;6.568;2022-09-09T03:06:57;14.23;;;8.05;;
51800;SDS011;37855;53.204;6.568;2022-09-09T03:09:23;11.93;;;7.70;;
51800;SDS011;37855;53.204;6.568;2022-09-09T03:11:50;12.80;;;8.05;;
51800;SDS011;37855;53.204;6.568;2022-09-09T03:14:16;10.80;;;7.30;;
51800;SDS011;37855;53.204;6.568;2022-09-09T03:16:46;11.77;;;7.30;;
51800;SDS011;37855;53.204;6.568;2022-09-09T03:19:12;12.75;;;7.85;;
51800;SDS011;37855;53.204;6.568;2022-09-09T03:21:37;15.27;;;7.80;;
51800;SDS011;37855;53.204;6.568;2022-09-09T03:24:04;9.57;;;7.30;;
51800;SDS011;37855;53.204;6.568;2022-09-09T03:26:30;11.48;;;6.53;;
51800;SDS011;37855;53.204;6.568;2022-09-09T03:28:56;11.98;;;6.80;;
51800;SDS011;37855;53.204;6.568;2022-09-09T03:31:22;11.05;;;6.60;;
51800;SDS011;37855;53.204;6.568;2022-09-09T03:33:48;10.27;;;5.95;;
51800;SDS011;37855;53.204;6.568;2022-09-09T03:36:14;9.52;;;6.30;;
51800;SDS011;37855;53.204;6.568;2022-09-09T03:38:40;9.57;;;5.80;;
51800;SDS011;37855;53.204;6.568;2022-09-09T03:41:06;12.40;;;6.40;;
51800;SDS011;37855;53.204;6.568;2022-09-09T03:43:32;12.38;;;6.53;;
51800;SDS011;37855;53.204;6.568;2022-09-09T03:45:59;11.23;;;5.60;;
51800;SDS011;37855;53.204;6.568;2022-09-09T03:48:25;10.77;;;5.85;;
51800;SDS011;37855;53.204;6.568;2022-09-09T03:50:53;8.27;;;5.55;;
51800;SDS011;37855;53.204;6.568;2022-09-09T03:53:19;11.10;;;5.05;;
51800;SDS011;37855;53.204;6.568;2022-09-09T03:55:46;7.15;;;4.45;;
51800;SDS011;37855;53.204;6.568;2022-09-09T03:58:15;9.52;;;4.50;;
51800;SDS011;37855;53.204;6.568;2022-09-09T04:00:44;11.98;;;4.47;;
51800;SDS011;37855;53.204;6.568;2022-09-09T04:03:39;10.10;;;3.88;;
51800;SDS011;37855;53.204;6.568;2022-09-09T04:06:06;8.63;;;3.88;;
51800;SDS011;37855;53.204;6.568;2022-09-09T04:08:34;6.22;;;3.53;;
51800;SDS011;37855;53.204;6.568;2022-09-09T04:11:01;6.38;;;3.15;;
51800;SDS011;37855;53.204;6.568;2022-09-09T04:13:32;8.38;;;2.90;;
51800;SDS011;37855;53.204;6.568;2022-09-09T04:16:03;7.55;;;2.65;;
51800;SDS011;37855;53.204;6.568;2022-09-09T04:18:29;8.98;;;3.33;;
51800;SDS011;37855;53.204;6.568;2022-09-09T04:20:56;7.60;;;3.15;;
51800;SDS011;37855;53.204;6.568;2022-09-09T04:23:23;9.75;;;2.92;;
51800;SDS011;37855;53.204;6.568;2022-09-09T04:25:51;7.63;;;2.60;;
51800;SDS011;37855;53.204;6.568;2022-09-09T04:28:18;7.50;;;2.85;;
51800;SDS011;37855;53.204;6.568;2022-09-09T04:30:44;8.38;;;2.53;;
51800;SDS011;37855;53.204;6.568;2022-09-09T04:33:11;6.30;;;2.67;;
51800;SDS011;37855;53.204;6.568;2022-09-09T04:35:38;8.93;;;3.00;;
51800;SDS011;37855;53.204;6.568;2022-09-09T04:38:05;9.30;;;3.10;;
51800;SDS011;37855;53.204;6.568;2022-09-09T04:40:34;8.02;;;2.90;;
51800;SDS011;37855;53.204;6.568;2022-09-09T04:43:00;6.82;;;2.97;;
51800;SDS011;37855;53.204;6.568;2022-09-09T04:45:28;9.30;;;3.40;;
51800;SDS011;37855;53.204;6.568;2022-09-09T04:47:55;8.57;;;3.45;;
51800;SDS011;37855;53.204;6.568;2022-09-09T04:50:20;7.18;;;3.20;;
51800;SDS011;37855;53.204;6.568;2022-09-09T04:52:46;6.00;;;3.28;;
51800;SDS011;37855;53.204;6.568;2022-09-09T04:55:12;6.93;;;3.30;;
51800;SDS011;37855;53.204;6.568;2022-09-09T04:57:38;9.52;;;4.07;;
51800;SDS011;37855;53.204;6.568;2022-09-09T05:00:04;8.18;;;3.78;;
51800;SDS011;37855;53.204;6.568;2022-09-09T05:02:30;9.25;;;3.92;;
51800;SDS011;37855;53.204;6.568;2022-09-09T05:04:57;7.95;;;3.83;;
51800;SDS011;37855;53.204;6.568;2022-09-09T05:07:23;8.05;;;4.18;;
51800;SDS011;37855;53.204;6.568;2022-09-09T05:09:49;10.60;;;4.45;;
51800;SDS011;37855;53.204;6.568;2022-09-09T05:12:15;7.85;;;4.25;;
51800;SDS011;37855;53.204;6.568;2022-09-09T05:14:44;8.18;;;4.70;;
51800;SDS011;37855;53.204;6.568;2022-09-09T05:17:10;10.23;;;4.70;;
51800;SDS011;37855;53.204;6.568;2022-09-09T05:19:36;8.32;;;4.80;;
51800;SDS011;37855;53.204;6.568;2022-09-09T05:22:02;7.93;;;4.45;;
51800;SDS011;37855;53.204;6.568;2022-09-09T05:24:29;10.82;;;5.60;;
51800;SDS011;37855;53.204;6.568;2022-09-09T05:26:58;9.52;;;5.13;;
51800;SDS011;37855;53.204;6.568;2022-09-09T05:29:26;9.68;;;5.65;;
51800;SDS011;37855;53.204;6.568;2022-09-09T05:31:52;9.50;;;5.50;;
51800;SDS011;37855;53.204;6.568;2022-09-09T05:34:18;9.98;;;5.57;;
51800;SDS011;37855;53.204;6.568;2022-09-09T05:36:44;9.80;;;6.00;;
51800;SDS011;37855;53.204;6.568;2022-09-09T05:39:10;10.32;;;5.95;;
51800;SDS011;37855;53.204;6.568;2022-09-09T05:41:37;11.88;;;6.22;;
51800;SDS011;37855;53.204;6.568;2022-09-09T05:44:02;10.55;;;6.30;;
51800;SDS011;37855;53.204;6.568;2022-09-09T05:46:28;11.05;;;6.75;;
51800;SDS011;37855;53.204;6.568;2022-09-09T05:48:54;11.95;;;6.45;;
51800;SDS011;37855;53.204;6.568;2022-09-09T05:51:21;10.43;;;6.65;;
51800;SDS011;37855;53.204;6.568;2022-09-09T05:53:49;11.52;;;6.60;;
51800;SDS011;37855;53.204;6.568;2022-09-09T05:56:20;14.52;;;7.25;;
51800;SDS011;37855;53.204;6.568;2022-09-09T05:58:48;13.43;;;7.20;;
51800;SDS011;37855;53.204;6.568;2022-09-09T06:01:24;11.10;;;6.88;;
51800;SDS011;37855;53.204;6.568;2022-09-09T06:03:52;12.57;;;7.32;;
51800;SDS011;37855;53.204;6.568;2022-09-09T06:06:19;12.25;;;6.78;;
51800;SDS011;37855;53.204;6.568;2022-09-09T06:08:51;11.10;;;7.13;;
51800;SDS011;37855;53.204;6.568;2022-09-09T06:11:21;11.80;;;7.07;;
51800;SDS011;37855;53.204;6.568;2022-09-09T06:13:49;11.50;;;7.45;;
51800;SDS011;37855;53.204;6.568;2022-09-09T06:16:20;12.27;;;7.75;;
51800;SDS011;37855;53.204;6.568;2022-09-09T06:18:50;10.38;;;6.93;;
51800;SDS011;37855;53.204;6.568;2022-09-09T06:21:19;9.98;;;7.03;;
51800;SDS011;37855;53.204;6.568;2022-09-09T06:23:45;11.63;;;6.95;;
51800;SDS011;37855;53.204;6.568;2022-09-09T06:28:43;14.60;;;7.63;;
51800;SDS011;37855;53.204;6.568;2022-09-09T06:31:10;12.02;;;6.53;;
51800;SDS011;37855;53.204;6.568;2022-09-09T06:33:37;11.00;;;7.57;;
51800;SDS011;37855;53.204;6.568;2022-09-09T06:36:06;11.32;;;7.13;;
51800;SDS011;37855;53.204;6.568;2022-09-09T06:38:35;12.60;;;7.03;;
51800;SDS011;37855;53.204;6.568;2022-09-09T06:41:00;12.98;;;6.80;;
51800;SDS011;37855;53.204;6.568;2022-09-09T06:43:27;12.23;;;5.72;;
51800;SDS011;37855;53.204;6.568;2022-09-09T06:45:56;11.85;;;6.70;;
51800;SDS011;37855;53.204;6.568;2022-09-09T06:48:26;11.55;;;6.60;;
51800;SDS011;37855;53.204;6.568;2022-09-09T06:53:34;8.52;;;6.57;;
51800;SDS011;37855;53.204;6.568;2022-09-09T06:56:01;9.55;;;6.30;;
51800;SDS011;37855;53.204;6.568;2022-09-09T06:58:39;10.20;;;6.30;;
51800;SDS011;37855;53.204;6.568;2022-09-09T07:01:08;8.50;;;6.45;;
51800;SDS011;37855;53.204;6.568;2022-09-09T07:03:34;10.73;;;6.18;;
51800;SDS011;37855;53.204;6.568;2022-09-09T07:06:00;12.15;;;6.60;;
51800;SDS011;37855;53.204;6.568;2022-09-09T07:08:27;9.73;;;6.70;;
51800;SDS011;37855;53.204;6.568;2022-09-09T07:10:53;11.15;;;6.03;;
51800;SDS011;37855;53.204;6.568;2022-09-09T07:13:25;7.93;;;5.55;;
51800;SDS011;37855;53.204;6.568;2022-09-09T07:15:51;9.45;;;6.07;;
51800;SDS011;37855;53.204;6.568;2022-09-09T07:18:18;9.63;;;6.20;;
51800;SDS011;37855;53.204;6.568;2022-09-09T07:20:52;11.35;;;6.40;;
51800;SDS011;37855;53.204;6.568;2022-09-09T07:23:19;12.77;;;6.07;;
51800;SDS011;37855;53.204;6.568;2022-09-09T07:25:45;13.30;;;5.30;;
51800;SDS011;37855;53.204;6.568;2022-09-09T07:28:11;12.57;;;6.03;;
51800;SDS011;37855;53.204;6.568;2022-09-09T07:30:36;10.88;;;5.57;;
51800;SDS011;37855;53.204;6.568;2022-09-09T07:33:02;8.82;;;5.68;;
51800;SDS011;37855;53.204;6.568;2022-09-09T07:35:28;10.73;;;5.65;;
51800;SDS011;37855;53.204;6.568;2022-09-09T07:37:54;12.50;;;5.68;;
51800;SDS011;37855;53.204;6.568;2022-09-09T07:40:19;9.73;;;5.80;;
51800;SDS011;37855;53.204;6.568;2022-09-09T07:42:46;9.45;;;5.20;;
51800;SDS011;37855;53.204;6.568;2022-09-09T07:45:12;8.15;;;5.13;;
51800;SDS011;37855;53.204;6.568;2022-09-09T07:47:39;9.73;;;5.63;;
51800;SDS011;37855;53.204;6.568;2022-09-09T07:50:07;11.13;;;5.78;;
51800;SDS011;37855;53.204;6.568;2022-09-09T07:52:34;9.13;;;5.32;;
51800;SDS011;37855;53.204;6.568;2022-09-09T07:55:00;9.52;;;5.63;;
51800;SDS011;37855;53.204;6.568;2022-09-09T07:57:28;9.32;;;5.22;;
51800;SDS011;37855;53.204;6.568;2022-09-09T07:59:55;8.38;;;5.10;;
51800;SDS011;37855;53.204;6.568;2022-09-09T08:02:21;9.63;;;5.10;;
51800;SDS011;37855;53.204;6.568;2022-09-09T08:04:52;8.25;;;4.72;;
51800;SDS011;37855;53.204;6.568;2022-09-09T08:07:18;6.70;;;4.10;;
51800;SDS011;37855;53.204;6.568;2022-09-09T08:09:46;6.38;;;4.35;;
51800;SDS011;37855;53.204;6.568;2022-09-09T08:12:12;7.38;;;4.47;;
51800;SDS011;37855;53.204;6.568;2022-09-09T08:14:38;10.32;;;4.80;;
51800;SDS011;37855;53.204;6.568;2022-09-09T08:17:05;9.00;;;4.30;;
51800;SDS011;37855;53.204;6.568;2022-09-09T08:19:30;9.20;;;4.60;;
51800;SDS011;37855;53.204;6.568;2022-09-09T08:21:59;9.80;;;4.70;;
51800;SDS011;37855;53.204;6.568;2022-09-09T08:24:26;9.40;;;4.63;;
51800;SDS011;37855;53.204;6.568;2022-09-09T08:26:52;10.00;;;4.80;;
51800;SDS011;37855;53.204;6.568;2022-09-09T08:29:18;8.45;;;4.57;;
51800;SDS011;37855;53.204;6.568;2022-09-09T08:31:51;9.25;;;4.63;;
51800;SDS011;37855;53.204;6.568;2022-09-09T08:34:22;9.23;;;3.97;;
51800;SDS011;37855;53.204;6.568;2022-09-09T08:36:54;8.15;;;3.40;;
51800;SDS011;37855;53.204;6.568;2022-09-09T08:39:20;9.82;;;4.10;;
51800;SDS011;37855;53.204;6.568;2022-09-09T08:41:56;8.70;;;3.63;;
51800;SDS011;37855;53.204;6.568;2022-09-09T08:47:40;6.55;;;3.65;;
51800;SDS011;37855;53.204;6.568;2022-09-09T08:50:29;7.00;;;3.80;;
51800;SDS011;37855;53.204;6.568;2022-09-09T08:53:11;11.90;;;3.58;;
51800;SDS011;37855;53.204;6.568;2022-09-09T08:55:50;7.13;;;3.45;;
51800;SDS011;37855;53.204;6.568;2022-09-09T08:58:23;8.48;;;3.45;;
51800;SDS011;37855;53.204;6.568;2022-09-09T09:03:40;7.18;;;3.15;;
51800;SDS011;37855;53.204;6.568;2022-09-09T09:11:34;8.75;;;3.67;;
51800;SDS011;37855;53.204;6.568;2022-09-09T09:14:09;9.68;;;3.60;;
51800;SDS011;37855;53.204;6.568;2022-09-09T09:16:50;12.40;;;3.35;;
51800;SDS011;37855;53.204;6.568;2022-09-09T09:19:32;9.40;;;3.75;;
51800;SDS011;37855;53.204;6.568;2022-09-09T09:29:53;10.15;;;3.40;;
51800;SDS011;37855;53.204;6.568;2022-09-09T09:32:24;7.13;;;2.97;;
51800;SDS011;37855;53.204;6.568;2022-09-09T09:34:56;10.57;;;3.50;;
51800;SDS011;37855;53.204;6.568;2022-09-09T09:37:27;9.45;;;2.90;;
51800;SDS011;37855;53.204;6.568;2022-09-09T09:39:56;10.23;;;3.08;;
51800;SDS011;37855;53.204;6.568;2022-09-09T09:42:32;8.85;;;3.03;;
51800;SDS011;37855;53.204;6.568;2022-09-09T09:45:07;8.77;;;3.40;;
51800;SDS011;37855;53.204;6.568;2022-09-09T09:47:40;10.63;;;3.53;;
51800;SDS011;37855;53.204;6.568;2022-09-09T09:50:16;13.95;;;3.30;;
51800;SDS011;37855;53.204;6.568;2022-09-09T09:52:51;12.07;;;3.13;;
51800;SDS011;37855;53.204;6.568;2022-09-09T09:55:22;9.93;;;2.85;;
51800;SDS011;37855;53.204;6.568;2022-09-09T09:57:49;9.82;;;3.10;;
51800;SDS011;37855;53.204;6.568;2022-09-09T10:00:19;8.20;;;2.75;;
51800;SDS011;37855;53.204;6.568;2022-09-09T10:02:47;9.80;;;2.97;;
51800;SDS011;37855;53.204;6.568;2022-09-09T10:07:47;12.20;;;2.72;;
51800;SDS011;37855;53.204;6.568;2022-09-09T10:13:15;10.85;;;2.63;;
51800;SDS011;37855;53.204;6.568;2022-09-09T10:24:49;11.48;;;2.55;;
51800;SDS011;37855;53.204;6.568;2022-09-09T10:30:28;11.05;;;2.50;;
51800;SDS011;37855;53.204;6.568;2022-09-09T10:33:09;12.05;;;2.63;;
51800;SDS011;37855;53.204;6.568;2022-09-09T10:38:30;9.48;;;2.53;;
51800;SDS011;37855;53.204;6.568;2022-09-09T10:43:59;12.35;;;2.60;;
51800;SDS011;37855;53.204;6.568;2022-09-09T10:52:24;13.40;;;2.30;;
51800;SDS011;37855;53.204;6.568;2022-09-09T10:54:56;8.25;;;1.98;;
51800;SDS011;37855;53.204;6.568;2022-09-09T11:00:10;12.73;;;2.10;;
51800;SDS011;37855;53.204;6.568;2022-09-09T11:02:39;12.30;;;2.28;;
51800;SDS011;37855;53.204;6.568;2022-09-09T11:05:14;10.80;;;2.17;;
51800;SDS011;37855;53.204;6.568;2022-09-09T11:10:52;11.00;;;1.88;;
51800;SDS011;37855;53.204;6.568;2022-09-09T11:13:14;11.65;;;1.88;;
51800;SDS011;37855;53.204;6.568;2022-09-09T11:15:49;11.27;;;1.95;;
51800;SDS011;37855;53.204;6.568;2022-09-09T11:18:19;9.23;;;1.80;;
51800;SDS011;37855;53.204;6.568;2022-09-09T11:20:47;10.50;;;1.70;;
51800;SDS011;37855;53.204;6.568;2022-09-09T11:23:22;12.57;;;1.90;;
51800;SDS011;37855;53.204;6.568;2022-09-09T11:25:58;12.38;;;2.10;;
51800;SDS011;37855;53.204;6.568;2022-09-09T11:42:07;8.05;;;1.27;;
51800;SDS011;37855;53.204;6.568;2022-09-09T11:44:53;9.32;;;1.60;;
51800;SDS011;37855;53.204;6.568;2022-09-09T11:47:27;12.38;;;1.83;;
51800;SDS011;37855;53.204;6.568;2022-09-09T11:52:41;11.55;;;2.03;;
51800;SDS011;37855;53.204;6.568;2022-09-09T11:55:11;7.32;;;1.65;;
51800;SDS011;37855;53.204;6.568;2022-09-09T11:58:02;8.82;;;1.73;;
51800;SDS011;37855;53.204;6.568;2022-09-09T12:03:03;10.15;;;1.48;;
51800;SDS011;37855;53.204;6.568;2022-09-09T12:05:51;8.77;;;1.77;;
51800;SDS011;37855;53.204;6.568;2022-09-09T12:08:19;10.43;;;1.40;;
51800;SDS011;37855;53.204;6.568;2022-09-09T12:10:54;6.50;;;1.48;;
51800;SDS011;37855;53.204;6.568;2022-09-09T12:13:22;8.55;;;1.83;;
51800;SDS011;37855;53.204;6.568;2022-09-09T12:15:51;8.23;;;1.60;;
51800;SDS011;37855;53.204;6.568;2022-09-09T12:18:38;8.77;;;1.67;;
51800;SDS011;37855;53.204;6.568;2022-09-09T12:23:57;10.75;;;2.00;;
51800;SDS011;37855;53.204;6.568;2022-09-09T12:31:51;9.38;;;2.08;;
51800;SDS011;37855;53.204;6.568;2022-09-09T12:39:46;8.32;;;1.50;;
51800;SDS011;37855;53.204;6.568;2022-09-09T12:42:20;8.15;;;1.40;;
51800;SDS011;37855;53.204;6.568;2022-09-09T12:44:53;10.50;;;1.63;;
51800;SDS011;37855;53.204;6.568;2022-09-09T12:50:10;9.13;;;1.63;;
51800;SDS011;37855;53.204;6.568;2022-09-09T12:52:41;17.38;;;2.17;;
51800;SDS011;37855;53.204;6.568;2022-09-09T12:55:14;13.27;;;1.90;;
51800;SDS011;37855;53.204;6.568;2022-09-09T12:57:43;15.38;;;1.95;;
51800;SDS011;37855;53.204;6.568;2022-09-09T13:00:22;12.32;;;1.63;;
51800;SDS011;37855;53.204;6.568;2022-09-09T13:02:50;17.35;;;1.80;;
51800;SDS011;37855;53.204;6.568;2022-09-09T13:05:25;11.60;;;1.50;;
51800;SDS011;37855;53.204;6.568;2022-09-09T13:08:06;15.35;;;1.60;;
51800;SDS011;37855;53.204;6.568;2022-09-09T13:10:35;17.35;;;2.10;;
51800;SDS011;37855;53.204;6.568;2022-09-09T13:13:13;11.90;;;1.55;;
51800;SDS011;37855;53.204;6.568;2022-09-09T13:15:54;12.07;;;1.85;;
51800;SDS011;37855;53.204;6.568;2022-09-09T13:18:24;18.73;;;1.90;;
51800;SDS011;37855;53.204;6.568;2022-09-09T13:20:58;8.88;;;1.83;;
51800;SDS011;37855;53.204;6.568;2022-09-09T13:23:26;9.48;;;1.50;;
51800;SDS011;37855;53.204;6.568;2022-09-09T13:25:58;11.88;;;1.80;;
51800;SDS011;37855;53.204;6.568;2022-09-09T13:28:27;12.68;;;1.58;;
51800;SDS011;37855;53.204;6.568;2022-09-09T13:33:36;10.65;;;1.67;;
51800;SDS011;37855;53.204;6.568;2022-09-09T13:36:04;12.32;;;2.03;;
51800;SDS011;37855;53.204;6.568;2022-09-09T13:38:35;13.07;;;1.80;;
51800;SDS011;37855;53.204;6.568;2022-09-09T13:41:07;6.50;;;1.38;;
51800;SDS011;37855;53.204;6.568;2022-09-09T13:43:36;14.77;;;1.38;;
51800;SDS011;37855;53.204;6.568;2022-09-09T13:46:33;12.43;;;1.60;;
51800;SDS011;37855;53.204;6.568;2022-09-09T13:49:01;21.52;;;2.00;;
51800;SDS011;37855;53.204;6.568;2022-09-09T13:51:40;39.08;;;2.85;;
51800;SDS011;37855;53.204;6.568;2022-09-09T13:54:10;53.33;;;2.92;;
51800;SDS011;37855;53.204;6.568;2022-09-09T13:56:38;60.75;;;3.25;;
51800;SDS011;37855;53.204;6.568;2022-09-09T13:59:05;58.20;;;4.43;;
51800;SDS011;37855;53.204;6.568;2022-09-09T14:01:35;93.20;;;4.63;;
51800;SDS011;37855;53.204;6.568;2022-09-09T14:04:02;76.03;;;4.07;;
51800;SDS011;37855;53.204;6.568;2022-09-09T14:06:28;143.32;;;7.53;;
51800;SDS011;37855;53.204;6.568;2022-09-09T14:08:54;160.05;;;9.25;;
51800;SDS011;37855;53.204;6.568;2022-09-09T14:11:20;117.28;;;6.80;;
51800;SDS011;37855;53.204;6.568;2022-09-09T14:13:46;65.10;;;4.20;;
51800;SDS011;37855;53.204;6.568;2022-09-09T14:16:18;105.85;;;7.68;;
51800;SDS011;37855;53.204;6.568;2022-09-09T14:18:44;56.33;;;3.90;;
51800;SDS011;37855;53.204;6.568;2022-09-09T14:21:10;74.25;;;4.50;;
51800;SDS011;37855;53.204;6.568;2022-09-09T14:23:36;82.13;;;5.78;;
51800;SDS011;37855;53.204;6.568;2022-09-09T14:26:03;54.72;;;3.35;;
51800;SDS011;37855;53.204;6.568;2022-09-09T14:28:32;32.78;;;2.17;;
51800;SDS011;37855;53.204;6.568;2022-09-09T14:30:59;27.40;;;2.85;;
51800;SDS011;37855;53.204;6.568;2022-09-09T14:33:26;41.13;;;3.22;;
51800;SDS011;37855;53.204;6.568;2022-09-09T14:35:57;30.60;;;3.15;;
51800;SDS011;37855;53.204;6.568;2022-09-09T14:38:30;27.15;;;2.90;;
51800;SDS011;37855;53.204;6.568;2022-09-09T14:40:59;23.98;;;2.67;;
51800;SDS011;37855;53.204;6.568;2022-09-09T14:43:28;32.53;;;1.70;;
51800;SDS011;37855;53.204;6.568;2022-09-09T14:45:54;23.40;;;1.88;;
51800;SDS011;37855;53.204;6.568;2022-09-09T14:48:20;22.63;;;2.28;;
51800;SDS011;37855;53.204;6.568;2022-09-09T14:50:46;25.13;;;1.83;;
51800;SDS011;37855;53.204;6.568;2022-09-09T14:53:11;14.93;;;1.10;;
51800;SDS011;37855;53.204;6.568;2022-09-09T14:55:37;13.75;;;1.60;;
51800;SDS011;37855;53.204;6.568;2022-09-09T14:58:04;13.82;;;1.20;;
51800;SDS011;37855;53.204;6.568;2022-09-09T15:00:31;10.13;;;1.25;;
51800;SDS011;37855;53.204;6.568;2022-09-09T15:02:57;9.43;;;1.13;;
51800;SDS011;37855;53.204;6.568;2022-09-09T15:05:22;9.70;;;1.92;;
51800;SDS011;37855;53.204;6.568;2022-09-09T15:07:49;11.93;;;1.38;;
51800;SDS011;37855;53.204;6.568;2022-09-09T15:10:15;7.38;;;1.20;;
51800;SDS011;37855;53.204;6.568;2022-09-09T15:12:42;10.40;;;1.20;;
51800;SDS011;37855;53.204;6.568;2022-09-09T15:15:08;7.47;;;1.20;;
51800;SDS011;37855;53.204;6.568;2022-09-09T15:17:34;7.47;;;1.38;;
51800;SDS011;37855;53.204;6.568;2022-09-09T15:20:02;6.55;;;1.40;;
51800;SDS011;37855;53.204;6.568;2022-09-09T15:22:28;11.10;;;1.20;;
51800;SDS011;37855;53.204;6.568;2022-09-09T15:24:54;7.80;;;1.17;;
51800;SDS011;37855;53.204;6.568;2022-09-09T15:27:19;13.05;;;1.40;;
51800;SDS011;37855;53.204;6.568;2022-09-09T15:29:45;9.65;;;1.20;;
51800;SDS011;37855;53.204;6.568;2022-09-09T15:32:11;12.10;;;1.33;;
51800;SDS011;37855;53.204;6.568;2022-09-09T15:34:37;7.28;;;1.38;;
51800;SDS011;37855;53.204;6.568;2022-09-09T15:37:03;9.32;;;1.42;;
51800;SDS011;37855;53.204;6.568;2022-09-09T15:39:28;6.05;;;1.30;;
51800;SDS011;37855;53.204;6.568;2022-09-09T15:41:57;6.80;;;1.20;;
51800;SDS011;37855;53.204;6.568;2022-09-09T15:44:24;6.72;;;1.10;;
51800;SDS011;37855;53.204;6.568;2022-09-09T15:46:53;6.22;;;1.25;;
51800;SDS011;37855;53.204;6.568;2022-09-09T15:49:23;11.80;;;1.30;;
51800;SDS011;37855;53.204;6.568;2022-09-09T15:51:57;3.72;;;0.90;;
51800;SDS011;37855;53.204;6.568;2022-09-09T15:54:24;6.97;;;1.15;;
51800;SDS011;37855;53.204;6.568;2022-09-09T15:56:52;3.75;;;0.85;;
51800;SDS011;37855;53.204;6.568;2022-09-09T15:59:26;3.35;;;1.00;;
51800;SDS011;37855;53.204;6.568;2022-09-09T16:01:53;4.95;;;0.88;;
51800;SDS011;37855;53.204;6.568;2022-09-09T16:04:20;5.07;;;0.90;;
51800;SDS011;37855;53.204;6.568;2022-09-09T16:06:50;5.88;;;0.70;;
51800;SDS011;37855;53.204;6.568;2022-09-09T16:09:17;4.53;;;1.02;;
51800;SDS011;37855;53.204;6.568;2022-09-09T16:11:43;5.03;;;0.90;;
51800;SDS011;37855;53.204;6.568;2022-09-09T16:14:09;3.63;;;0.88;;
51800;SDS011;37855;53.204;6.568;2022-09-09T16:16:36;5.70;;;0.90;;
51800;SDS011;37855;53.204;6.568;2022-09-09T16:19:06;5.45;;;0.90;;
51800;SDS011;37855;53.204;6.568;2022-09-09T16:21:35;4.45;;;1.60;;
51800;SDS011;37855;53.204;6.568;2022-09-09T16:24:03;15.57;;;5.90;;
51800;SDS011;37855;53.204;6.568;2022-09-09T16:26:30;29.85;;;10.02;;
51800;SDS011;37855;53.204;6.568;2022-09-09T16:28:58;12.63;;;3.00;;
51800;SDS011;37855;53.204;6.568;2022-09-09T16:31:24;6.40;;;1.30;;
51800;SDS011;37855;53.204;6.568;2022-09-09T16:33:51;3.92;;;1.00;;
51800;SDS011;37855;53.204;6.568;2022-09-09T16:36:19;5.40;;;1.52;;
51800;SDS011;37855;53.204;6.568;2022-09-09T16:38:46;4.03;;;1.00;;
51800;SDS011;37855;53.204;6.568;2022-09-09T16:41:13;4.72;;;1.10;;
51800;SDS011;37855;53.204;6.568;2022-09-09T16:43:42;2.80;;;0.80;;
51800;SDS011;37855;53.204;6.568;2022-09-09T16:46:17;5.03;;;0.70;;
51800;SDS011;37855;53.204;6.568;2022-09-09T16:48:45;2.78;;;0.80;;
51800;SDS011;37855;53.204;6.568;2022-09-09T16:51:16;4.40;;;0.90;;
51800;SDS011;37855;53.204;6.568;2022-09-09T16:53:43;3.00;;;0.90;;
51800;SDS011;37855;53.204;6.568;2022-09-09T16:56:12;4.70;;;0.90;;
51800;SDS011;37855;53.204;6.568;2022-09-09T16:58:40;5.55;;;1.08;;
51800;SDS011;37855;53.204;6.568;2022-09-09T17:01:08;7.25;;;1.25;;
51800;SDS011;37855;53.204;6.568;2022-09-09T17:03:35;3.83;;;1.02;;
51800;SDS011;37855;53.204;6.568;2022-09-09T17:06:02;5.50;;;1.00;;
51800;SDS011;37855;53.204;6.568;2022-09-09T17:08:33;5.03;;;1.00;;